createdAt,value
2022-09-14T00:03:28.962Z,9.25
2022-09-14T00:08:31.308Z,9.77
2022-09-14T00:13:36.631Z,9.27
2022-09-14T00:18:40.034Z,9.35
2022-09-14T00:23:42.600Z,8.52
2022-09-14T00:28:58.278Z,8.77
2022-09-14T00:34:05.934Z,8.13
2022-09-14T00:39:08.943Z,8.10
2022-09-14T00:44:12.202Z,8.15
2022-09-14T00:49:20.838Z,8.20
2022-09-14T00:54:23.481Z,7.90
2022-09-14T00:59:31.091Z,8.70
2022-09-14T01:04:35.803Z,8.68
2022-09-14T01:10:07.972Z,8.25
2022-09-14T01:15:39.043Z,7.43
2022-09-14T01:20:50.762Z,7.50
2022-09-14T01:26:27.175Z,7.35
2022-09-14T01:31:53.916Z,7.30
2022-09-14T01:37:01.224Z,8.23
2022-09-14T01:42:04.658Z,7.90
2022-09-14T01:47:17.190Z,7.78
2022-09-14T01:52:27.511Z,7.93
2022-09-14T01:58:02.576Z,8.00
2022-09-14T02:03:17.701Z,7.45
2022-09-14T02:08:20.659Z,7.78
2022-09-14T02:13:24.781Z,7.97
2022-09-14T02:18:28.493Z,7.30
2022-09-14T02:23:31.205Z,7.13
2022-09-14T02:28:34.158Z,7.45
2022-09-14T02:33:56.364Z,8.25
2022-09-14T02:39:05.156Z,8.27
2022-09-14T02:44:10.508Z,7.82
2022-09-14T02:49:39.462Z,7.05
2022-09-14T02:55:12.679Z,7.43
2022-09-14T03:00:15.210Z,7.25
2022-09-14T03:05:17.659Z,8.00
2022-09-14T03:10:20.091Z,6.70
2022-09-14T03:15:23.519Z,7.30
2022-09-14T03:20:28.232Z,6.20
2022-09-14T03:25:31.559Z,4.50
2022-09-14T03:30:34.902Z,4.80
2022-09-14T03:40:39.969Z,4.85
2022-09-14T03:45:42.461Z,5.20
2022-09-14T03:50:44.992Z,5.43
2022-09-14T03:55:47.451Z,5.23
2022-09-14T04:00:49.989Z,4.70
2022-09-14T04:05:56.593Z,4.45
2022-09-14T04:10:59.030Z,4.43
2022-09-14T04:16:02.275Z,4.18
2022-09-14T04:26:12.978Z,3.97
2022-09-14T04:31:23.151Z,3.70
2022-09-14T04:36:30.266Z,3.58
2022-09-14T04:41:35.517Z,3.95
2022-09-14T04:46:45.022Z,3.83
2022-09-14T04:52:10.086Z,3.75
2022-09-14T04:57:34.484Z,3.25
2022-09-14T05:02:41.299Z,3.72
2022-09-14T05:07:43.634Z,3.47
2022-09-14T05:12:46.072Z,3.47
2022-09-14T05:17:50.366Z,4.22
2022-09-14T05:22:52.627Z,4.07
2022-09-14T05:27:55.116Z,3.78
2022-09-14T05:33:00.243Z,3.30
2022-09-14T05:38:02.784Z,3.50
2022-09-14T05:43:43.420Z,3.60
2022-09-14T05:48:45.818Z,3.03
2022-09-14T05:53:54.038Z,3.27
2022-09-14T05:58:56.668Z,3.08
2022-09-14T06:04:10.491Z,2.75
2022-09-14T06:09:13.079Z,3.08
2022-09-14T06:14:20.914Z,3.30
2022-09-14T06:19:23.457Z,3.10
2022-09-14T06:24:25.802Z,3.40
2022-09-14T06:29:28.667Z,2.72
2022-09-14T06:34:31.015Z,3.58
2022-09-14T06:39:34.333Z,2.92
2022-09-14T06:44:36.822Z,2.50
2022-09-14T06:49:39.414Z,3.05
2022-09-14T06:54:43.321Z,2.90
2022-09-14T06:59:45.984Z,2.43
2022-09-14T07:04:48.448Z,2.50
2022-09-14T07:10:04.730Z,3.60
2022-09-14T07:15:08.060Z,3.38
2022-09-14T07:20:15.752Z,3.78
2022-09-14T07:25:20.542Z,3.10
2022-09-14T07:30:25.165Z,3.30
2022-09-14T07:35:27.602Z,3.15
2022-09-14T07:40:36.331Z,3.07
2022-09-14T07:45:39.106Z,2.85
2022-09-14T07:50:41.614Z,2.35
2022-09-14T07:55:45.084Z,3.17
2022-09-14T08:00:48.052Z,2.33
2022-09-14T08:05:58.518Z,2.50
2022-09-14T08:11:11.612Z,2.45
2022-09-14T08:16:15.125Z,2.20
2022-09-14T08:21:19.867Z,2.25
2022-09-14T08:26:23.611Z,2.30
2022-09-14T08:31:28.111Z,2.33
2022-09-14T08:36:32.969Z,1.80
2022-09-14T08:41:39.243Z,1.83
2022-09-14T08:46:47.073Z,1.98
2022-09-14T08:51:51.040Z,3.40
2022-09-14T08:57:01.298Z,2.28
2022-09-14T09:02:48.822Z,1.75
2022-09-14T09:08:04.159Z,1.70
2022-09-14T09:13:13.959Z,1.80
2022-09-14T09:18:26.492Z,1.50
2022-09-14T09:23:36.416Z,1.48
2022-09-14T09:49:30.598Z,2.20
2022-09-14T09:55:17.550Z,1.50
2022-09-14T10:00:22.308Z,1.63
2022-09-14T10:05:29.178Z,2.15
2022-09-14T10:11:01.082Z,1.70
2022-09-14T10:16:16.617Z,1.80
2022-09-14T10:21:22.099Z,1.55
2022-09-14T10:47:57.109Z,1.70
2022-09-14T10:53:11.784Z,1.50
2022-09-14T10:58:39.829Z,2.25
2022-09-14T11:04:05.230Z,1.80
2022-09-14T11:28:54.099Z,1.40
2022-09-14T11:34:42.860Z,1.70
2022-09-14T11:41:22.956Z,1.70
2022-09-14T11:46:34.533Z,1.85
2022-09-14T11:51:56.970Z,1.58
2022-09-14T11:57:02.139Z,1.70
2022-09-14T12:02:36.212Z,1.60
2022-09-14T12:07:47.591Z,1.77
2022-09-14T12:24:43.997Z,2.20
2022-09-14T12:30:23.078Z,2.40
2022-09-14T12:35:38.139Z,2.05
2022-09-14T12:46:38.802Z,2.08
2022-09-14T12:51:51.710Z,2.10
2022-09-14T12:57:09.434Z,1.95
2022-09-14T13:02:25.680Z,1.92
2022-09-14T13:21:32.610Z,1.73
2022-09-14T13:26:35.438Z,2.50
2022-09-14T13:31:39.805Z,1.83
2022-09-14T13:36:44.351Z,2.15
2022-09-14T13:41:48.577Z,2.47
2022-09-14T13:46:52.241Z,1.85
2022-09-14T13:52:43.097Z,2.10
2022-09-14T13:58:09.553Z,2.40
2022-09-14T14:03:28.043Z,1.90
2022-09-14T14:08:34.376Z,1.70
2022-09-14T14:13:37.725Z,1.77
2022-09-14T14:18:43.063Z,1.80
2022-09-14T14:24:11.765Z,1.60
2022-09-14T14:29:10.337Z,1.85
2022-09-14T14:34:23.639Z,1.52
2022-09-14T14:39:26.385Z,1.90
2022-09-14T14:44:29.441Z,2.00
2022-09-14T14:49:32.357Z,1.95
2022-09-14T14:59:41.116Z,10.45
2022-09-14T15:04:43.608Z,4.68
2022-09-14T15:09:45.941Z,2.55
2022-09-14T15:14:48.291Z,2.90
2022-09-14T15:19:50.828Z,7.55
2022-09-14T15:24:53.156Z,11.90
2022-09-14T15:29:55.498Z,7.40
2022-09-14T15:34:59.147Z,3.03
2022-09-14T15:40:03.611Z,23.67
2022-09-14T15:45:12.313Z,18.00
2022-09-14T15:50:16.266Z,26.13
2022-09-14T15:55:18.629Z,21.38
2022-09-14T16:00:21.177Z,18.53
2022-09-14T16:05:24.160Z,13.70
2022-09-14T16:10:27.511Z,4.68
2022-09-14T16:15:32.714Z,2.45
2022-09-14T16:20:35.932Z,2.25
2022-09-14T16:25:41.772Z,1.90
2022-09-14T16:30:44.697Z,2.97
2022-09-14T16:42:21.745Z,9.40
2022-09-14T16:47:25.934Z,7.83
2022-09-14T16:52:29.982Z,7.47
2022-09-14T16:57:34.199Z,6.85
2022-09-14T17:02:37.363Z,6.63
2022-09-14T17:07:41.157Z,6.53
2022-09-14T17:12:44.947Z,6.10
2022-09-14T17:17:47.706Z,8.20
2022-09-14T17:22:50.255Z,9.32
2022-09-14T17:27:53.657Z,10.75
2022-09-14T17:32:56.604Z,14.38
2022-09-14T17:43:01.951Z,42.83
2022-09-14T17:48:07.773Z,33.83
2022-09-14T17:53:10.431Z,28.20
2022-09-14T17:58:17.615Z,35.42
2022-09-14T18:03:22.175Z,51.50
2022-09-14T18:13:28.112Z,49.75
2022-09-14T18:18:30.755Z,41.25
2022-09-14T18:23:36.358Z,31.52
2022-09-14T18:28:39.665Z,16.92
2022-09-14T18:33:50.559Z,15.25
2022-09-14T18:38:53.885Z,32.22
2022-09-14T18:43:56.417Z,35.72
2022-09-14T18:49:00.543Z,30.50
2022-09-14T18:54:07.084Z,26.80
2022-09-14T18:59:12.906Z,22.63
2022-09-14T19:04:16.118Z,19.75
2022-09-14T19:09:19.160Z,20.58
2022-09-14T19:19:26.490Z,15.30
2022-09-14T19:24:31.036Z,18.35
2022-09-14T19:29:33.530Z,17.80
2022-09-14T19:34:36.546Z,16.03
2022-09-14T19:39:39.126Z,13.05
2022-09-14T19:44:42.693Z,11.95
2022-09-14T19:49:45.017Z,13.57
2022-09-14T19:54:47.381Z,12.25
2022-09-14T19:59:49.658Z,12.37
2022-09-14T20:04:51.944Z,15.18
2022-09-14T20:09:54.640Z,14.10
2022-09-14T20:14:57.082Z,14.60
2022-09-14T20:19:59.624Z,14.00
2022-09-14T20:25:02.050Z,8.43
2022-09-14T20:30:05.520Z,8.57
2022-09-14T20:35:10.905Z,8.10
2022-09-14T20:40:13.527Z,5.57
2022-09-14T20:45:16.898Z,4.25
2022-09-14T20:55:21.803Z,4.18
2022-09-14T21:00:24.320Z,3.87
2022-09-14T21:05:26.809Z,4.00
2022-09-14T21:10:30.817Z,4.50
2022-09-14T21:15:34.075Z,4.28
2022-09-14T21:20:38.565Z,4.63
2022-09-14T21:25:42.519Z,4.63
2022-09-14T21:30:46.071Z,4.40
2022-09-14T21:35:51.681Z,4.72
2022-09-14T21:40:54.339Z,4.70
2022-09-14T21:45:59.937Z,4.03
2022-09-14T21:51:09.002Z,4.50
2022-09-14T21:56:11.863Z,4.35
2022-09-14T22:01:16.616Z,4.43
2022-09-14T22:06:20.678Z,4.60
2022-09-14T22:11:29.513Z,4.80
2022-09-14T22:16:35.185Z,4.55
2022-09-14T22:21:38.549Z,4.00
2022-09-14T22:31:45.069Z,4.37
2022-09-14T22:36:48.821Z,4.60
2022-09-14T22:41:51.638Z,4.50
2022-09-14T22:46:54.228Z,4.55
2022-09-14T22:51:57.030Z,4.87
2022-09-14T22:56:59.484Z,5.13
2022-09-14T23:02:02.027Z,5.47
2022-09-14T23:07:08.566Z,5.07
2022-09-14T23:12:11.039Z,5.25
2022-09-14T23:17:13.723Z,5.07
2022-09-14T23:22:17.408Z,5.00
2022-09-14T23:27:19.822Z,4.88
2022-09-14T23:32:22.403Z,4.80
2022-09-14T23:37:24.829Z,5.40
2022-09-14T23:42:31.017Z,4.73
2022-09-14T23:47:34.730Z,4.78
2022-09-14T23:52:38.315Z,4.55
2022-09-14T23:57:44.410Z,4.77
